KZR124 UZTT-UACC
Flight info
| Callsign | KZR124 |
|---|---|
| Flight time | 1h 45m |
| Altitude | 36000 |
| Route | ODORI2C ODORI Z578 ARSUL Z632 GENDI M168 TIMKA P178 AMIGU Z586 GURPI GURPI1D |
| Aircraft | A321/M-SDE3FGHIRWY/LB1 |
Departure
| Time | 2026-05-04 10:10 |
|---|---|
| Airport | Tashkent International Airport (UZTT) |
Arrival
| Time | 2026-05-04 11:55 |
|---|---|
| Airport | Nursultan Nazarbayev International Airport (UACC) |
| Time | Latitude | Longitude | Altitude | Speed | Heading |
|---|---|---|---|---|---|
| 2026-05-04 09:43 | 41.26180 | 69.27344 | 1394 ft | 0 kts | 330° |
| 2026-05-04 09:57 | 41.26181 | 69.27344 | 1394 ft | 0 kts | 330° |
| 2026-05-04 09:57 | 41.26180 | 69.27344 | 1394 ft | 1 kts | 330° |
| 2026-05-04 09:57 | 41.26167 | 69.27356 | 1404 ft | 4 kts | 321° |
| 2026-05-04 09:58 | 41.26158 | 69.27369 | 1401 ft | 0 kts | 291° |
| 2026-05-04 09:58 | 41.26158 | 69.27368 | 1401 ft | 0 kts | 285° |
| 2026-05-04 09:58 | 41.26151 | 69.27361 | 1400 ft | 3 kts | 226° |
| 2026-05-04 10:00 | 41.26082 | 69.27242 | 1397 ft | 4 kts | 134° |
| 2026-05-04 10:00 | 41.26079 | 69.27276 | 1401 ft | 4 kts | 95° |
| 2026-05-04 10:02 | 41.26107 | 69.27670 | 1398 ft | 8 kts | 81° |
| 2026-05-04 10:04 | 41.26185 | 69.28331 | 1405 ft | 12 kts | 81° |
| 2026-05-04 10:04 | 41.26191 | 69.28447 | 1406 ft | 13 kts | 92° |
| 2026-05-04 10:04 | 41.26188 | 69.28567 | 1409 ft | 13 kts | 92° |
| 2026-05-04 10:04 | 41.26184 | 69.28693 | 1409 ft | 14 kts | 92° |
| 2026-05-04 10:05 | 41.26182 | 69.28818 | 1413 ft | 14 kts | 89° |
| 2026-05-04 10:05 | 41.26191 | 69.28948 | 1413 ft | 14 kts | 84° |
| 2026-05-04 10:05 | 41.26200 | 69.29081 | 1416 ft | 14 kts | 86° |
| 2026-05-04 10:05 | 41.26206 | 69.29215 | 1414 ft | 15 kts | 87° |
| 2026-05-04 10:06 | 41.26210 | 69.29352 | 1416 ft | 15 kts | 89° |
| 2026-05-04 10:06 | 41.26212 | 69.29490 | 1417 ft | 15 kts | 89° |
| 2026-05-04 10:06 | 41.26214 | 69.29631 | 1419 ft | 15 kts | 89° |
| 2026-05-04 10:08 | 41.26158 | 69.30047 | 1423 ft | 2 kts | 151° |
| 2026-05-04 10:08 | 41.26147 | 69.30055 | 1423 ft | 2 kts | 151° |
| 2026-05-04 10:08 | 41.26134 | 69.30065 | 1424 ft | 2 kts | 151° |
| 2026-05-04 10:08 | 41.26120 | 69.30075 | 1424 ft | 3 kts | 151° |
| 2026-05-04 10:09 | 41.26075 | 69.30060 | 1424 ft | 12 kts | 225° |
| 2026-05-04 10:09 | 41.26045 | 69.29863 | 1425 ft | 52 kts | 263° |
| 2026-05-04 10:09 | 41.25940 | 69.28990 | 1415 ft | 136 kts | 262° |
| 2026-05-04 10:09 | 41.25802 | 69.27463 | 1652 ft | 182 kts | 264° |
| 2026-05-04 10:10 | 41.25631 | 69.25790 | 2601 ft | 183 kts | 262° |
| 2026-05-04 10:10 | 41.25428 | 69.24038 | 3368 ft | 203 kts | 262° |
| 2026-05-04 10:10 | 41.25206 | 69.22124 | 3764 ft | 220 kts | 262° |
| 2026-05-04 10:10 | 41.24967 | 69.20031 | 4108 ft | 235 kts | 262° |
| 2026-05-04 10:11 | 41.24721 | 69.17860 | 4731 ft | 239 kts | 262° |
| 2026-05-04 10:11 | 41.24474 | 69.15675 | 5362 ft | 241 kts | 262° |
| 2026-05-04 10:11 | 41.24227 | 69.13460 | 6001 ft | 243 kts | 262° |
| 2026-05-04 10:11 | 41.24121 | 69.11195 | 6445 ft | 254 kts | 278° |
| 2026-05-04 10:12 | 41.24750 | 69.09014 | 6874 ft | 261 kts | 306° |
| 2026-05-04 10:12 | 41.26148 | 69.07434 | 7408 ft | 265 kts | 335° |
| 2026-05-04 10:12 | 41.27891 | 69.06716 | 7953 ft | 267 kts | 345° |
| 2026-05-04 10:12 | 41.29700 | 69.06093 | 8490 ft | 270 kts | 345° |
| 2026-05-04 10:13 | 41.31521 | 69.05465 | 9033 ft | 272 kts | 345° |
| 2026-05-04 10:13 | 41.33360 | 69.04829 | 9542 ft | 275 kts | 345° |
| 2026-05-04 10:13 | 41.35218 | 69.04185 | 10064 ft | 277 kts | 345° |
| 2026-05-04 10:13 | 41.37089 | 69.03535 | 10585 ft | 279 kts | 345° |
| 2026-05-04 10:14 | 41.38971 | 69.02879 | 11093 ft | 281 kts | 345° |
| 2026-05-04 10:14 | 41.40870 | 69.02216 | 11584 ft | 284 kts | 345° |
| 2026-05-04 10:16 | 41.54668 | 68.97367 | 14784 ft | 302 kts | 345° |
| 2026-05-04 10:16 | 41.56704 | 68.96653 | 15186 ft | 304 kts | 345° |
| 2026-05-04 10:16 | 41.58763 | 68.95931 | 15601 ft | 306 kts | 345° |
| 2026-05-04 10:16 | 41.60831 | 68.95202 | 16002 ft | 309 kts | 345° |
| 2026-05-04 10:17 | 41.62887 | 68.94477 | 16392 ft | 311 kts | 345° |
| 2026-05-04 10:17 | 41.64986 | 68.93733 | 16780 ft | 313 kts | 345° |
| 2026-05-04 10:19 | 41.80072 | 68.88399 | 19206 ft | 326 kts | 345° |
| 2026-05-04 10:19 | 41.82270 | 68.87621 | 19525 ft | 328 kts | 345° |
| 2026-05-04 10:19 | 41.84486 | 68.86834 | 19826 ft | 330 kts | 345° |
| 2026-05-04 10:19 | 41.86706 | 68.86044 | 20128 ft | 331 kts | 345° |
| 2026-05-04 10:20 | 41.88940 | 68.85249 | 20429 ft | 332 kts | 345° |
| 2026-05-04 10:20 | 41.91175 | 68.84453 | 20730 ft | 333 kts | 345° |
| 2026-05-04 10:20 | 41.93421 | 68.83653 | 21021 ft | 335 kts | 345° |
| 2026-05-04 10:20 | 41.95679 | 68.82848 | 21263 ft | 339 kts | 345° |
| 2026-05-04 10:21 | 41.98033 | 68.82196 | 21385 ft | 353 kts | 353° |
| 2026-05-04 10:21 | 42.00532 | 68.81963 | 21515 ft | 366 kts | 1° |
| 2026-05-04 10:21 | 42.03123 | 68.82044 | 21645 ft | 380 kts | 2° |
| 2026-05-04 10:21 | 42.05810 | 68.82136 | 21775 ft | 392 kts | 2° |
| 2026-05-04 10:22 | 42.11431 | 68.82319 | 22032 ft | 415 kts | 2° |
| 2026-05-04 10:22 | 42.14361 | 68.82411 | 22163 ft | 426 kts | 2° |
| 2026-05-04 10:22 | 42.17307 | 68.82502 | 22433 ft | 432 kts | 2° |
| 2026-05-04 10:23 | 42.20317 | 68.82595 | 22801 ft | 435 kts | 2° |
| 2026-05-04 10:23 | 42.23350 | 68.82693 | 23214 ft | 438 kts | 2° |
| 2026-05-04 10:25 | 42.44989 | 68.82283 | 25929 ft | 454 kts | 345° |
| 2026-05-04 10:25 | 42.47969 | 68.80857 | 26262 ft | 456 kts | 338° |
| 2026-05-04 10:25 | 42.50927 | 68.79257 | 26600 ft | 458 kts | 339° |
| 2026-05-04 10:25 | 42.53894 | 68.77661 | 26972 ft | 460 kts | 339° |
| 2026-05-04 10:26 | 42.56882 | 68.76061 | 27328 ft | 462 kts | 339° |
| 2026-05-04 10:26 | 42.59874 | 68.74461 | 27653 ft | 463 kts | 339° |
| 2026-05-04 10:26 | 42.62873 | 68.72853 | 27959 ft | 465 kts | 339° |
| 2026-05-04 10:26 | 42.65882 | 68.71234 | 28262 ft | 466 kts | 339° |
| 2026-05-04 10:27 | 42.68899 | 68.69608 | 28540 ft | 467 kts | 339° |
| 2026-05-04 10:27 | 42.71924 | 68.67973 | 28797 ft | 468 kts | 339° |
| 2026-05-04 10:27 | 42.74957 | 68.66328 | 29042 ft | 470 kts | 339° |
| 2026-05-04 10:27 | 42.77990 | 68.64683 | 29387 ft | 468 kts | 339° |
| 2026-05-04 10:28 | 42.81008 | 68.63045 | 29770 ft | 466 kts | 339° |
| 2026-05-04 10:28 | 42.84016 | 68.61417 | 30145 ft | 465 kts | 339° |
| 2026-05-04 10:28 | 42.86009 | 68.60347 | 30387 ft | 464 kts | 339° |
| 2026-05-04 10:28 | 42.89002 | 68.58747 | 30753 ft | 462 kts | 339° |
| 2026-05-04 10:29 | 42.92959 | 68.56639 | 31213 ft | 459 kts | 339° |
| 2026-05-04 10:29 | 42.95931 | 68.55054 | 31546 ft | 458 kts | 339° |
| 2026-05-04 10:29 | 42.98888 | 68.53472 | 31886 ft | 456 kts | 339° |
| 2026-05-04 10:29 | 43.01831 | 68.51896 | 32211 ft | 454 kts | 339° |
| 2026-05-04 10:30 | 43.03821 | 68.50828 | 32438 ft | 453 kts | 339° |
| 2026-05-04 10:30 | 43.06748 | 68.49255 | 32754 ft | 451 kts | 339° |
| 2026-05-04 10:30 | 43.09666 | 68.47686 | 33063 ft | 450 kts | 339° |
| 2026-05-04 10:30 | 43.12574 | 68.46119 | 33370 ft | 448 kts | 339° |
| 2026-05-04 10:31 | 43.15468 | 68.44554 | 33681 ft | 447 kts | 339° |
| 2026-05-04 10:31 | 43.18321 | 68.43009 | 33971 ft | 446 kts | 339° |
| 2026-05-04 10:32 | 43.35936 | 68.35867 | 35027 ft | 441 kts | 355° |
| 2026-05-04 10:33 | 43.41985 | 68.35084 | 35025 ft | 441 kts | 354° |
| 2026-05-04 10:33 | 43.48152 | 68.34259 | 35025 ft | 440 kts | 354° |
| 2026-05-04 10:34 | 43.54243 | 68.33433 | 35026 ft | 440 kts | 354° |
| 2026-05-04 10:34 | 43.60326 | 68.32617 | 35027 ft | 439 kts | 354° |
| 2026-05-04 10:35 | 43.66409 | 68.31795 | 35027 ft | 439 kts | 354° |
| 2026-05-04 10:35 | 43.72482 | 68.30973 | 35026 ft | 438 kts | 354° |
| 2026-05-04 10:36 | 43.78542 | 68.30166 | 35026 ft | 438 kts | 354° |
| 2026-05-04 10:36 | 43.84608 | 68.29337 | 35026 ft | 438 kts | 354° |
| 2026-05-04 10:37 | 43.90676 | 68.28514 | 35025 ft | 438 kts | 354° |
| 2026-05-04 10:37 | 43.96746 | 68.27688 | 35026 ft | 438 kts | 354° |
| 2026-05-04 10:39 | 44.17902 | 68.26054 | 35027 ft | 437 kts | 8° |
| 2026-05-04 10:40 | 44.23920 | 68.27317 | 35026 ft | 438 kts | 8° |
| 2026-05-04 10:40 | 44.29960 | 68.28563 | 35026 ft | 438 kts | 8° |
| 2026-05-04 10:41 | 44.35989 | 68.29814 | 35026 ft | 438 kts | 8° |
| 2026-05-04 10:41 | 44.42015 | 68.31067 | 35026 ft | 438 kts | 8° |
| 2026-05-04 10:42 | 44.48048 | 68.32323 | 35026 ft | 438 kts | 8° |
| 2026-05-04 10:42 | 44.54074 | 68.33590 | 35027 ft | 438 kts | 8° |
| 2026-05-04 10:43 | 44.60101 | 68.34862 | 35026 ft | 438 kts | 8° |
| 2026-05-04 10:45 | 44.84198 | 68.39940 | 35035 ft | 439 kts | 8° |
| 2026-05-04 10:45 | 44.90229 | 68.41216 | 35034 ft | 439 kts | 7° |
| 2026-05-04 10:46 | 44.96274 | 68.42497 | 35044 ft | 439 kts | 7° |
| 2026-05-04 10:46 | 45.02316 | 68.43785 | 35045 ft | 439 kts | 8° |
| 2026-05-04 10:47 | 45.08350 | 68.45076 | 35045 ft | 438 kts | 7° |
| 2026-05-04 10:47 | 45.14379 | 68.46366 | 35043 ft | 439 kts | 7° |
| 2026-05-04 10:49 | 45.38494 | 68.51540 | 35055 ft | 437 kts | 7° |
| 2026-05-04 10:50 | 45.44512 | 68.52839 | 35054 ft | 437 kts | 7° |
| 2026-05-04 10:52 | 45.68512 | 68.58066 | 35075 ft | 436 kts | 7° |
| 2026-05-04 10:52 | 45.74518 | 68.59376 | 35072 ft | 436 kts | 7° |
| 2026-05-04 10:54 | 45.98537 | 68.64651 | 35084 ft | 437 kts | 7° |
| 2026-05-04 10:56 | 46.19538 | 68.69307 | 35518 ft | 436 kts | 7° |
| 2026-05-04 10:56 | 46.22495 | 68.69969 | 35759 ft | 436 kts | 7° |
| 2026-05-04 10:56 | 46.25494 | 68.70638 | 35984 ft | 436 kts | 7° |
| 2026-05-04 10:57 | 46.28498 | 68.71309 | 36075 ft | 437 kts | 7° |
| 2026-05-04 10:57 | 46.34510 | 68.72661 | 36090 ft | 437 kts | 7° |
| 2026-05-04 10:58 | 46.40504 | 68.74001 | 36091 ft | 438 kts | 7° |
| 2026-05-04 10:58 | 46.46541 | 68.75347 | 36091 ft | 438 kts | 7° |
| 2026-05-04 10:59 | 46.52560 | 68.76696 | 36101 ft | 438 kts | 7° |
| 2026-05-04 10:59 | 46.58584 | 68.78060 | 36106 ft | 438 kts | 7° |
| 2026-05-04 11:00 | 46.64612 | 68.79422 | 36111 ft | 438 kts | 6° |
| 2026-05-04 11:02 | 46.88743 | 68.84900 | 36117 ft | 439 kts | 6° |
| 2026-05-04 11:05 | 47.33979 | 68.95320 | 36128 ft | 439 kts | 6° |
| 2026-05-04 11:06 | 47.40013 | 68.96729 | 36130 ft | 438 kts | 6° |
| 2026-05-04 11:06 | 47.46035 | 68.98133 | 36123 ft | 439 kts | 6° |
| 2026-05-04 11:10 | 47.88229 | 69.08053 | 36127 ft | 438 kts | 6° |
| 2026-05-04 11:12 | 48.12284 | 69.13794 | 36132 ft | 438 kts | 6° |
| 2026-05-04 11:12 | 48.18308 | 69.15242 | 36124 ft | 438 kts | 6° |
| 2026-05-04 11:13 | 48.24328 | 69.16689 | 36126 ft | 438 kts | 6° |
| 2026-05-04 11:13 | 48.30346 | 69.18133 | 36124 ft | 438 kts | 6° |
| 2026-05-04 11:14 | 48.36368 | 69.19579 | 36129 ft | 438 kts | 6° |
| 2026-05-04 11:16 | 48.60463 | 69.25440 | 36134 ft | 439 kts | 6° |
| 2026-05-04 11:16 | 48.66486 | 69.26917 | 36137 ft | 438 kts | 6° |
| 2026-05-04 11:17 | 48.72507 | 69.28400 | 36136 ft | 438 kts | 6° |
| 2026-05-04 11:19 | 48.95595 | 69.34075 | 36135 ft | 439 kts | 6° |
| 2026-05-04 11:19 | 49.01620 | 69.35571 | 36143 ft | 439 kts | 5° |
| 2026-05-04 11:20 | 49.07643 | 69.37081 | 36147 ft | 439 kts | 6° |
| 2026-05-04 11:20 | 49.13662 | 69.38592 | 36146 ft | 439 kts | 6° |
| 2026-05-04 11:22 | 49.32136 | 69.53223 | 36131 ft | 463 kts | 56° |
| 2026-05-04 11:22 | 49.33767 | 69.57494 | 36134 ft | 464 kts | 56° |
| 2026-05-04 11:23 | 49.37013 | 69.66041 | 36131 ft | 464 kts | 56° |
| 2026-05-04 11:25 | 49.48303 | 69.96108 | 36133 ft | 465 kts | 56° |
| 2026-05-04 11:25 | 49.51522 | 70.04749 | 36146 ft | 465 kts | 57° |
| 2026-05-04 11:27 | 49.65950 | 70.43771 | 36155 ft | 465 kts | 57° |
| 2026-05-04 11:28 | 49.69137 | 70.52480 | 36154 ft | 466 kts | 57° |
| 2026-05-04 11:28 | 49.72314 | 70.61192 | 36160 ft | 466 kts | 57° |
| 2026-05-04 11:29 | 49.75461 | 70.69865 | 36170 ft | 465 kts | 57° |
| 2026-05-04 11:29 | 49.78631 | 70.78608 | 36170 ft | 466 kts | 57° |
| 2026-05-04 11:31 | 49.89666 | 71.09327 | 36024 ft | 466 kts | 57° |
| 2026-05-04 11:33 | 50.05768 | 71.30419 | 26609 ft | 425 kts | 22° |
| 2026-05-04 11:33 | 50.08398 | 71.32501 | 24939 ft | 423 kts | 23° |
| 2026-05-04 11:33 | 50.11012 | 71.34583 | 23257 ft | 422 kts | 24° |
| 2026-05-04 11:34 | 50.13585 | 71.36640 | 21640 ft | 420 kts | 24° |
| 2026-05-04 11:34 | 50.16163 | 71.38705 | 20324 ft | 411 kts | 24° |
| 2026-05-04 11:34 | 50.18612 | 71.40672 | 19978 ft | 378 kts | 24° |
| 2026-05-04 11:34 | 50.20913 | 71.42517 | 19634 ft | 379 kts | 24° |
| 2026-05-04 11:35 | 50.23280 | 71.44396 | 19115 ft | 383 kts | 24° |
| 2026-05-04 11:35 | 50.25647 | 71.46279 | 18617 ft | 382 kts | 24° |
| 2026-05-04 11:35 | 50.28006 | 71.48166 | 18133 ft | 379 kts | 24° |
| 2026-05-04 11:35 | 50.30345 | 71.50043 | 17636 ft | 377 kts | 24° |
| 2026-05-04 11:36 | 50.32649 | 71.51898 | 17270 ft | 368 kts | 24° |
| 2026-05-04 11:36 | 50.34898 | 71.53714 | 16893 ft | 359 kts | 24° |
| 2026-05-04 11:36 | 50.37113 | 71.55500 | 16644 ft | 357 kts | 24° |
| 2026-05-04 11:36 | 50.39319 | 71.57277 | 16394 ft | 356 kts | 24° |
| 2026-05-04 11:37 | 50.41516 | 71.59047 | 16142 ft | 354 kts | 24° |
| 2026-05-04 11:37 | 50.43703 | 71.60811 | 15850 ft | 353 kts | 24° |
| 2026-05-04 11:37 | 50.45878 | 71.62568 | 15393 ft | 350 kts | 25° |
| 2026-05-04 11:37 | 50.48034 | 71.64312 | 14937 ft | 347 kts | 25° |
| 2026-05-04 11:38 | 50.50173 | 71.66045 | 14473 ft | 345 kts | 25° |
| 2026-05-04 11:38 | 50.52294 | 71.67766 | 14038 ft | 342 kts | 25° |
| 2026-05-04 11:38 | 50.54401 | 71.69481 | 13951 ft | 342 kts | 25° |
| 2026-05-04 11:38 | 50.56511 | 71.71194 | 13872 ft | 342 kts | 25° |
| 2026-05-04 11:39 | 50.58627 | 71.72910 | 13770 ft | 341 kts | 25° |
| 2026-05-04 11:39 | 50.60736 | 71.74625 | 13651 ft | 341 kts | 25° |
| 2026-05-04 11:40 | 50.68686 | 71.90720 | 13164 ft | 351 kts | 103° |
| 2026-05-04 11:41 | 50.67984 | 71.94414 | 13169 ft | 352 kts | 106° |
| 2026-05-04 11:41 | 50.67508 | 71.98187 | 13166 ft | 351 kts | 94° |
| 2026-05-04 11:41 | 50.67499 | 72.02018 | 13166 ft | 350 kts | 85° |
| 2026-05-04 11:41 | 50.67630 | 72.05851 | 13164 ft | 350 kts | 85° |
| 2026-05-04 11:42 | 50.67756 | 72.09673 | 13173 ft | 350 kts | 85° |
| 2026-05-04 11:42 | 50.68099 | 72.13454 | 13173 ft | 348 kts | 74° |
| 2026-05-04 11:42 | 50.68910 | 72.17030 | 13172 ft | 345 kts | 60° |
| 2026-05-04 11:42 | 50.70345 | 72.19985 | 13174 ft | 339 kts | 39° |
| 2026-05-04 11:43 | 50.72324 | 72.21922 | 13177 ft | 334 kts | 18° |
| 2026-05-04 11:43 | 50.74577 | 72.22634 | 13175 ft | 329 kts | 358° |
| 2026-05-04 11:43 | 50.76818 | 72.22075 | 13174 ft | 326 kts | 339° |
| 2026-05-04 11:43 | 50.78781 | 72.20350 | 13171 ft | 324 kts | 322° |
| 2026-05-04 11:44 | 50.80602 | 72.18232 | 13165 ft | 325 kts | 324° |
| 2026-05-04 11:44 | 50.82489 | 72.16266 | 13165 ft | 325 kts | 327° |
| 2026-05-04 11:44 | 50.84409 | 72.14364 | 13165 ft | 325 kts | 327° |
| 2026-05-04 11:44 | 50.86331 | 72.12472 | 13165 ft | 325 kts | 327° |
| 2026-05-04 11:45 | 50.88231 | 72.10579 | 13160 ft | 316 kts | 327° |
| 2026-05-04 11:45 | 50.90024 | 72.08761 | 13160 ft | 297 kts | 326° |
| 2026-05-04 11:45 | 50.91709 | 72.07031 | 13164 ft | 291 kts | 326° |
| 2026-05-04 11:45 | 50.93423 | 72.05257 | 13164 ft | 290 kts | 326° |
| 2026-05-04 11:46 | 50.95086 | 72.03528 | 13171 ft | 290 kts | 326° |
| 2026-05-04 11:46 | 50.96858 | 72.01986 | 13168 ft | 291 kts | 331° |
| 2026-05-04 11:46 | 50.98677 | 72.00493 | 13162 ft | 289 kts | 332° |
| 2026-05-04 11:46 | 51.00435 | 71.99050 | 13163 ft | 289 kts | 331° |
| 2026-05-04 11:47 | 51.02230 | 71.97575 | 13172 ft | 291 kts | 331° |
| 2026-05-04 11:47 | 51.04031 | 71.96099 | 13169 ft | 291 kts | 331° |
| 2026-05-04 11:47 | 51.05831 | 71.94624 | 13160 ft | 291 kts | 331° |
| 2026-05-04 11:47 | 51.07622 | 71.93159 | 12571 ft | 288 kts | 332° |
| 2026-05-04 11:48 | 51.09401 | 71.91704 | 11642 ft | 288 kts | 332° |
| 2026-05-04 11:48 | 51.11173 | 71.90251 | 10820 ft | 285 kts | 332° |
| 2026-05-04 11:48 | 51.12918 | 71.88818 | 10078 ft | 280 kts | 332° |
| 2026-05-04 11:48 | 51.14537 | 71.87177 | 9334 ft | 275 kts | 319° |
| 2026-05-04 11:49 | 51.15897 | 71.85070 | 8609 ft | 270 kts | 314° |
| 2026-05-04 11:49 | 51.17189 | 71.82980 | 7976 ft | 260 kts | 313° |
| 2026-05-04 11:49 | 51.18228 | 71.80694 | 7287 ft | 252 kts | 296° |
| 2026-05-04 11:49 | 51.18778 | 71.78081 | 6614 ft | 246 kts | 279° |
| 2026-05-04 11:50 | 51.18821 | 71.75395 | 5980 ft | 240 kts | 262° |
| 2026-05-04 11:50 | 51.18393 | 71.72887 | 5408 ft | 228 kts | 246° |
| 2026-05-04 11:50 | 51.17616 | 71.70831 | 5055 ft | 207 kts | 232° |
| 2026-05-04 11:50 | 51.16685 | 71.69272 | 4786 ft | 182 kts | 225° |
| 2026-05-04 11:51 | 51.15825 | 71.67913 | 4553 ft | 169 kts | 225° |
| 2026-05-04 11:51 | 51.14994 | 71.66600 | 4331 ft | 168 kts | 225° |
| 2026-05-04 11:51 | 51.14169 | 71.65302 | 4120 ft | 167 kts | 225° |
| 2026-05-04 11:51 | 51.13361 | 71.64030 | 3905 ft | 159 kts | 225° |
| 2026-05-04 11:52 | 51.12592 | 71.62820 | 3702 ft | 154 kts | 225° |
| 2026-05-04 11:52 | 51.11835 | 71.61630 | 3486 ft | 152 kts | 225° |
| 2026-05-04 11:52 | 51.11083 | 71.60449 | 3290 ft | 152 kts | 225° |
| 2026-05-04 11:52 | 51.10331 | 71.59267 | 3085 ft | 151 kts | 225° |
| 2026-05-04 11:53 | 51.09584 | 71.58095 | 2885 ft | 151 kts | 225° |
| 2026-05-04 11:53 | 51.08838 | 71.56925 | 2689 ft | 150 kts | 225° |
| 2026-05-04 11:53 | 51.08085 | 71.55745 | 2488 ft | 153 kts | 222° |
| 2026-05-04 11:53 | 51.07340 | 71.54577 | 2283 ft | 153 kts | 221° |
| 2026-05-04 11:55 | 51.02286 | 71.46666 | 1163 ft | 46 kts | 224° |
| 2026-05-04 11:55 | 51.02251 | 71.46611 | 1165 ft | 0 kts | 224° |
| 2026-05-04 11:56 | 51.02247 | 71.46606 | 1165 ft | 2 kts | 224° |
| 2026-05-04 11:56 | 51.02229 | 71.46577 | 1162 ft | 5 kts | 225° |
| 2026-05-04 11:56 | 51.02199 | 71.46529 | 1165 ft | 7 kts | 225° |
| 2026-05-04 11:56 | 51.02157 | 71.46463 | 1162 ft | 10 kts | 225° |
| 2026-05-04 11:57 | 51.02102 | 71.46376 | 1164 ft | 13 kts | 225° |
| 2026-05-04 11:57 | 51.02072 | 71.46249 | 1162 ft | 12 kts | 284° |
| 2026-05-04 11:57 | 51.02142 | 71.46183 | 1163 ft | 12 kts | 353° |
| 2026-05-04 11:57 | 51.02235 | 71.46174 | 1164 ft | 9 kts | 359° |
| 2026-05-04 11:58 | 51.02237 | 71.46174 | 1164 ft | 0 kts | 359° |
| 2026-05-04 11:59 | 51.02243 | 71.46175 | 1164 ft | 2 kts | 4° |
| 2026-05-04 11:59 | 51.02258 | 71.46187 | 1164 ft | 4 kts | 26° |
| 2026-05-04 11:59 | 51.02287 | 71.46215 | 1164 ft | 6 kts | 33° |
| 2026-05-04 11:59 | 51.02335 | 71.46222 | 1164 ft | 8 kts | 353° |
| 2026-05-04 12:00 | 51.02389 | 71.46172 | 1162 ft | 10 kts | 322° |
| 2026-05-04 12:00 | 51.02447 | 71.46087 | 1163 ft | 13 kts | 316° |
| 2026-05-04 12:00 | 51.02511 | 71.45976 | 1164 ft | 15 kts | 311° |
| 2026-05-04 12:00 | 51.02584 | 71.45866 | 1164 ft | 11 kts | 316° |
| 2026-05-04 12:01 | 51.02641 | 71.45896 | 1164 ft | 11 kts | 44° |
| 2026-05-04 12:01 | 51.02659 | 71.45925 | 1164 ft | 0 kts | 46° |